Time;durP1;ratioP1;P1;durP2;ratioP2;P2;SDS_P1;SDS_P2;PMS_P1;PMS_P2;Temp;Humidity;BMP_temperature;BMP_pressure;BME280_temperature;BME280_humidity;BME280_pressure;Samples;Min_cycle;Max_cycle;Signal;HPM_P1;HPM_P2
2022/08/03 00:01:48;;;;;;;;;;;;;;;27.51;62.10;100085.31;4434377;32;20020;-63
2022/08/03 00:04:19;;;;;;;;;;;;;;;27.50;62.07;100090.88;4434569;32;20087;-65
2022/08/03 00:07:00;;;;;;;;;;;;;;;27.49;62.05;100083.72;4434547;32;20300;-64
2022/08/03 00:09:31;;;;;;;;;;;;;;;27.46;62.11;100089.44;4434471;32;20019;-64
2022/08/03 00:12:02;;;;;;;;;;;;;;;27.45;62.15;100082.28;4420789;32;19970;-63
2022/08/03 00:14:29;;;;;;;;;;;;;;;27.44;62.14;100086.84;4434565;32;19977;-63
2022/08/03 00:17:01;;;;;;;;;;;;;;;27.43;62.16;100087.00;4434281;32;20347;-62
2022/08/03 00:19:28;;;;;;;;;;;;;;;27.34;62.43;100080.53;4434536;32;19981;-63
2022/08/03 00:21:56;;;;;;;;;;;;;;;27.34;62.52;100080.53;4434259;32;20294;-63
2022/08/03 00:24:27;;;;;;;;;;;;;;;27.34;62.56;100081.37;4434398;32;20037;-63
2022/08/03 00:26:56;;;;;;;;;;;;;;;27.31;62.58;100080.78;4434299;32;20000;-63
2022/08/03 00:29:23;;;;;;;;;;;;;;;27.32;62.66;100087.94;4434042;32;19984;-63
2022/08/03 00:31:51;;;;;;;;;;;;;;;27.33;62.57;100086.94;4434229;32;20234;-62
2022/08/03 00:34:26;;;;;;;;;;;;;;;27.47;62.06;100089.28;4434417;32;19995;-64
2022/08/03 00:37:14;;;;;;;;;;;;;;;27.33;62.72;100089.62;4434332;32;20089;-62
2022/08/03 00:39:44;;;;;;;;;;;;;;;27.19;63.44;100087.25;4434312;32;20270;-62
2022/08/03 00:42:12;;;;;;;;;;;;;;;26.74;64.80;100087.44;4434188;32;20210;-63
2022/08/03 00:44:41;;;;;;;;;;;;;;;26.65;65.52;100094.50;4434258;32;19989;-63
2022/08/03 00:47:10;;;;;;;;;;;;;;;26.60;65.94;100097.56;4434187;32;19989;-63
2022/08/03 00:49:38;;;;;;;;;;;;;;;26.59;66.12;100100.41;4434115;32;20023;-63
2022/08/03 00:52:09;;;;;;;;;;;;;;;26.60;66.22;100096.69;4433104;32;19973;-64
2022/08/03 00:54:37;;;;;;;;;;;;;;;26.59;66.30;100095.84;4433617;32;19985;-63
2022/08/03 00:57:05;;;;;;;;;;;;;;;26.59;66.42;100103.97;4433733;32;20004;-63
2022/08/03 00:59:38;;;;;;;;;;;;;;;26.62;66.36;100100.16;4434153;32;19997;-64
2022/08/03 01:02:07;;;;;;;;;;;;;;;26.62;66.39;100098.31;4434094;32;20034;-62
2022/08/03 01:04:35;;;;;;;;;;;;;;;26.62;66.39;100109.13;4434300;32;20028;-62
2022/08/03 01:07:18;;;;;;;;;;;;;;;26.62;66.40;100106.41;4434094;32;19993;-64
2022/08/03 01:09:48;;;;;;;;;;;;;;;26.62;66.48;100106.41;4433530;32;19973;-64
2022/08/03 01:12:55;;;;;;;;;;;;;;;26.66;66.30;100105.16;4433806;32;20023;-64
2022/08/03 01:15:23;;;;;;;;;;;;;;;26.68;66.25;100110.47;4371160;32;19991;-64
2022/08/03 01:17:53;;;;;;;;;;;;;;;26.67;66.31;100117.69;4371067;32;20022;-63
2022/08/03 01:20:26;;;;;;;;;;;;;;;26.63;66.48;100118.06;4371191;32;20013;-62
2022/08/03 01:23:20;;;;;;;;;;;;;;;26.63;66.51;100118.06;4370967;32;20085;-64
2022/08/03 01:25:51;;;;;;;;;;;;;;;26.64;66.47;100120.66;4368822;32;19990;-63
2022/08/03 01:28:33;;;;;;;;;;;;;;;26.64;66.41;100108.97;4371137;32;20066;-62
2022/08/03 01:31:04;;;;;;;;;;;;;;;26.62;66.42;100114.53;4370915;32;20327;-63
2022/08/03 01:33:39;;;;;;;;;;;;;;;26.62;66.42;100111.81;4370897;32;20161;-62
2022/08/03 01:36:16;;;;;;;;;;;;;;;26.60;66.44;100119.19;4370934;32;19995;-63
2022/08/03 01:38:52;;;;;;;;;;;;;;;26.59;66.45;100122.88;4370901;32;20002;-63
2022/08/03 01:41:33;;;;;;;;;;;;;;;26.60;66.44;100124.59;4370886;32;19979;-63
2022/08/03 01:44:03;;;;;;;;;;;;;;;26.58;66.52;100118.47;4370849;32;19975;-64
2022/08/03 01:46:52;;;;;;;;;;;;;;;26.60;66.43;100113.78;4370755;32;20033;-62
2022/08/03 01:49:26;;;;;;;;;;;;;;;26.59;66.53;100117.47;4401874;32;20019;-63
2022/08/03 01:51:55;;;;;;;;;;;;;;;26.58;66.62;100121.16;4433619;32;20041;-62
2022/08/03 01:54:37;;;;;;;;;;;;;;;26.58;66.66;100115.75;4433708;32;19991;-65
2022/08/03 01:57:05;;;;;;;;;;;;;;;26.60;66.67;100112.91;4433664;32;20230;-62
2022/08/03 01:59:35;;;;;;;;;;;;;;;26.59;66.67;100109.38;4433661;32;19998;-63
2022/08/03 02:02:04;;;;;;;;;;;;;;;26.58;66.77;100110.34;4433534;32;19987;-63
2022/08/03 02:04:55;;;;;;;;;;;;;;;26.60;66.72;100111.06;4433252;32;20285;-62
2022/08/03 02:07:25;;;;;;;;;;;;;;;26.62;66.64;100102.84;4432983;32;19996;-62
2022/08/03 02:09:54;;;;;;;;;;;;;;;26.61;66.65;100103.84;4433439;32;20050;-63
2022/08/03 02:12:24;;;;;;;;;;;;;;;26.59;66.68;100109.38;4433184;32;19974;-63
2022/08/03 02:14:53;;;;;;;;;;;;;;;26.57;66.81;100102.34;4433535;32;20044;-63
2022/08/03 02:17:22;;;;;;;;;;;;;;;26.55;66.90;100107.91;4432066;32;20016;-62
2022/08/03 02:20:08;;;;;;;;;;;;;;;26.56;66.89;100101.50;4433349;32;20049;-62
2022/08/03 02:22:41;;;;;;;;;;;;;;;26.55;66.82;100105.22;4433312;32;19977;-62
2022/08/03 02:25:10;;;;;;;;;;;;;;;26.56;66.78;100104.22;4433166;32;20259;-63
2022/08/03 02:27:42;;;;;;;;;;;;;;;26.55;66.83;100098.94;4433144;32;19986;-64
2022/08/03 02:30:13;;;;;;;;;;;;;;;26.55;66.77;100105.22;4433309;32;19993;-63
2022/08/03 02:32:46;;;;;;;;;;;;;;;26.53;66.78;100111.72;4433154;32;19982;-63
2022/08/03 02:35:16;;;;;;;;;;;;;;;26.52;66.83;100100.06;4433154;32;19978;-64
2022/08/03 02:37:46;;;;;;;;;;;;;;;26.52;66.85;100105.47;4433088;32;20374;-63
2022/08/03 02:40:19;;;;;;;;;;;;;;;26.54;66.87;100102.59;4433097;32;20042;-63
2022/08/03 02:42:51;;;;;;;;;;;;;;;26.54;66.86;100111.59;4432962;32;19987;-63
2022/08/03 02:45:21;;;;;;;;;;;;;;;26.53;66.92;100111.72;4432488;32;19969;-64
2022/08/03 02:47:52;;;;;;;;;;;;;;;27.30;63.84;100112.38;4432775;32;19978;-62
2022/08/03 02:50:25;;;;;;;;;;;;;;;26.89;63.91;100110.47;4432892;32;20015;-62
2022/08/03 02:52:58;;;;;;;;;;;;;;;26.61;66.06;100104.69;4432913;32;20029;-63
2022/08/03 02:55:33;;;;;;;;;;;;;;;26.55;66.62;100110.59;4432855;32;20331;-62
2022/08/03 02:58:02;;;;;;;;;;;;;;;26.54;66.84;100108.91;4432859;32;20000;-63
2022/08/03 03:00:32;;;;;;;;;;;;;;;26.53;66.96;100107.16;4432722;32;19989;-62
2022/08/03 03:03:01;;;;;;;;;;;;;;;26.50;67.08;100109.25;4432082;32;19969;-63
2022/08/03 03:05:30;;;;;;;;;;;;;;;26.66;65.75;100117.81;4432646;32;19969;-62
2022/08/03 03:08:20;;;;;;;;;;;;;;;26.50;66.82;100109.25;4432627;32;20303;-63
2022/08/03 03:10:57;;;;;;;;;;;;;;;27.24;63.74;100115.63;4432559;32;19998;-62
2022/08/03 03:13:27;;;;;;;;;;;;;;;26.73;64.68;100110.91;4432356;32;20270;-62
2022/08/03 03:16:00;;;;;;;;;;;;;;;26.52;66.44;100108.16;4433810;32;19977;-62
2022/08/03 03:18:29;;;;;;;;;;;;;;;26.48;66.98;100105.84;4434809;32;20002;-62
2022/08/03 03:20:57;;;;;;;;;;;;;;;26.45;67.16;100109.62;4434769;32;19999;-62
2022/08/03 03:23:31;;;;;;;;;;;;;;;26.43;67.39;100115.16;4434843;32;20278;-70
2022/08/03 03:26:03;;;;;;;;;;;;;;;26.62;68.94;100110.97;4434328;32;19981;-69
2022/08/03 03:28:38;;;;;;;;;;;;;;;26.57;74.12;100108.63;4434810;32;19982;-69
2022/08/03 03:31:06;;;;;;;;;;;;;;;26.45;74.86;100112.31;4434764;32;20042;-67
2022/08/03 03:33:34;;;;;;;;;;;;;;;26.46;73.32;100106.81;4434165;32;20027;-69
2022/08/03 03:36:03;;;;;;;;;;;;;;;26.46;72.93;100109.50;4434733;32;19984;-70
2022/08/03 03:38:31;;;;;;;;;;;;;;;26.48;72.55;100117.50;4434685;32;20299;-67
2022/08/03 03:40:59;;;;;;;;;;;;;;;26.47;72.25;100118.50;4434687;32;19997;-68
2022/08/03 03:43:28;;;;;;;;;;;;;;;26.48;72.03;100120.22;4434572;32;19993;-71
2022/08/03 03:45:56;;;;;;;;;;;;;;;27.07;70.20;100117.03;4434664;32;20035;-70
2022/08/03 03:48:25;;;;;;;;;;;;;;;27.18;68.47;100118.87;4434642;32;19977;-69
2022/08/03 03:50:53;;;;;;;;;;;;;;;27.37;67.21;100121.69;4434522;32;20005;-68
2022/08/03 03:53:20;;;;;;;;;;;;;;;27.42;66.64;100126.69;4434587;32;19970;-70
2022/08/03 03:55:48;;;;;;;;;;;;;;;27.30;66.60;100120.50;4434542;32;19988;-69
2022/08/03 03:58:30;;;;;;;;;;;;;;;27.24;67.15;100128.28;4422467;32;19989;-67
2022/08/03 04:00:58;;;;;;;;;;;;;;;27.20;67.30;100124.97;4434588;32;20053;-69
2022/08/03 04:03:26;;;;;;;;;;;;;;;27.20;67.24;100129.53;4434008;32;20041;-69
2022/08/03 04:11:28;;;;;;;;;;;;;;;26.40;70.96;100133.47;4434315;32;19993;-72
2022/08/03 04:14:16;;;;;;;;;;;;;;;26.40;71.18;100130.75;4434208;32;19991;-72
2022/08/03 04:16:54;;;;;;;;;;;;;;;26.39;71.34;100137.97;4434503;32;19977;-71
2022/08/03 04:19:31;;;;;;;;;;;;;;;26.37;71.41;100134.56;4434536;32;19982;-69
2022/08/03 04:22:01;;;;;;;;;;;;;;;26.38;71.43;100146.22;4434478;32;19993;-71
2022/08/03 04:24:34;;;;;;;;;;;;;;;26.39;71.39;100148.78;4434516;32;20028;-72
2022/08/03 04:27:08;;;;;;;;;;;;;;;26.40;71.42;100153.22;4434501;32;20005;-71
2022/08/03 04:29:40;;;;;;;;;;;;;;;26.40;71.47;100138.87;4434411;32;20203;-71
2022/08/03 04:32:15;;;;;;;;;;;;;;;26.40;71.43;100147.81;4434279;32;19986;-71
2022/08/03 04:34:44;;;;;;;;;;;;;;;26.39;71.44;100145.22;4434441;32;20266;-77
2022/08/03 04:37:13;;;;;;;;;;;;;;;26.42;71.83;100140.44;4433923;32;19973;-76
2022/08/03 04:39:42;;;;;;;;;;;;;;;26.43;72.30;100149.41;4434359;32;20000;-76
2022/08/03 04:42:13;;;;;;;;;;;;;;;26.40;72.34;100145.13;4434391;32;20075;-73
2022/08/03 04:44:41;;;;;;;;;;;;;;;26.39;72.14;100151.50;4434466;32;19978;-71
2022/08/03 04:47:09;;;;;;;;;;;;;;;26.39;71.94;100150.62;4434325;32;20218;-75
2022/08/03 04:49:37;;;;;;;;;;;;;;;26.38;71.82;100157.88;4434374;32;19982;-73
2022/08/03 04:52:07;;;;;;;;;;;;;;;26.39;71.69;100156.03;4434174;32;20004;-71
2022/08/03 04:54:41;;;;;;;;;;;;;;;26.39;71.57;100159.59;4434281;32;20200;-76
2022/08/03 04:57:14;;;;;;;;;;;;;;;26.38;71.49;100162.44;4434225;32;20309;-68
2022/08/03 04:59:53;;;;;;;;;;;;;;;26.39;71.22;100165.00;4434192;32;20286;-72
2022/08/03 05:02:29;;;;;;;;;;;;;;;26.39;71.11;100164.16;4434196;32;19993;-73
2022/08/03 05:04:57;;;;;;;;;;;;;;;26.41;70.95;100171.16;4434326;32;20008;-77
2022/08/03 05:07:29;;;;;;;;;;;;;;;26.42;70.86;100180.09;4434127;32;19997;-76
2022/08/03 05:10:07;;;;;;;;;;;;;;;26.44;70.64;100173.59;4434252;32;20020;-75
2022/08/03 05:12:42;;;;;;;;;;;;;;;26.45;70.49;100174.47;4434141;32;19993;-76
2022/08/03 05:15:10;;;;;;;;;;;;;;;26.46;70.35;100178.88;4434266;32;20015;-77
2022/08/03 05:17:38;;;;;;;;;;;;;;;26.45;70.28;100177.16;4434164;32;19995;-71
2022/08/03 05:20:06;;;;;;;;;;;;;;;26.45;70.20;100180.72;4434076;32;20045;-76
2022/08/03 05:22:34;;;;;;;;;;;;;;;26.47;70.05;100180.66;4434046;32;19993;-71
2022/08/03 05:25:01;;;;;;;;;;;;;;;26.46;69.98;100185.16;4434172;32;20007;-71
2022/08/03 05:27:29;;;;;;;;;;;;;;;26.48;69.90;100185.06;4434010;32;19973;-69
2022/08/03 05:30:01;;;;;;;;;;;;;;;26.49;69.81;100189.47;4420649;32;20246;-72
2022/08/03 05:32:49;;;;;;;;;;;;;;;26.48;69.75;100187.75;4434002;32;20289;-75
2022/08/03 05:35:19;;;;;;;;;;;;;;;26.50;69.64;100188.47;4434035;32;20033;-71
2022/08/03 05:38:07;;;;;;;;;;;;;;;26.49;69.61;100194.00;4433359;32;20035;-76
2022/08/03 05:40:38;;;;;;;;;;;;;;;26.50;69.59;100199.28;4433961;32;19989;-71
2022/08/03 05:43:23;;;;;;;;;;;;;;;26.50;69.65;100201.12;4433345;32;19996;-75
2022/08/03 05:45:51;;;;;;;;;;;;;;;26.49;69.71;100202.97;4433913;32;19977;-76
2022/08/03 05:48:40;;;;;;;;;;;;;;;26.48;69.75;100201.25;4433771;32;20030;-75
2022/08/03 05:51:09;;;;;;;;;;;;;;;26.50;69.80;100203.84;4433688;32;19982;-76
2022/08/03 05:53:39;;;;;;;;;;;;;;;26.49;69.88;100200.28;4433731;32;20057;-76
2022/08/03 05:56:07;;;;;;;;;;;;;;;26.50;69.97;100207.38;4428537;32;20222;-67
2022/08/03 05:58:42;;;;;;;;;;;;;;;26.52;70.62;100205.44;4420764;32;64706;-67
